EGGDEGSS

Guest
Details From EGGD - Bristol Lulsgate
To EGSS - London Stansted
Flight Number -
Tags Routegen
Created
Modified
Stats Distance 114 nm / 211 km
Max Altitude 0 ft / 0 m
Waypoints 2
Social Downloads 0
Likes 0
Share VATSIM

Download

Looking for another format? Having issues loading an existing format? Contact us
Advertisement - Login to hide

Notes

None

Route

EGGD EGSS

ID Type Via Altitude (ft/m) Position (lat/lon) Dist (leg/tot) Name
O EGGD APT - 0 / 0 51.38211 / -2.73350 - / 0 nm
O EGSS APT - 0 / 0 51.87508 / 0.21993 114 / 114 nm

Altitude Profile

Advertisement - Login to hide

EGGD

Details ICAO EGGD (BRS)
Name Bristol
Region United Kingdom
Timezone Europe/London (UTC+0.0)
Stats Elevation 622 ft / 190 m (AMSL)
Location 51.382700° -2.719110°
Runways 1
Magnetic Variation 1.160° W

METAR

EGGD 220550Z AUTO 21007KT 9999 OVC010 08/06 Q1028

Decode

TAF

TAF EGGD 220502Z 2206/2306 21003KT 9999 BKN008 TEMPO 2206/2209 BKN020 PROB30 TEMPO 2206/2209 8000 BKN004 BECMG 2209/2212 BKN020 BECMG 2212/2215 27010KT BECMG 2222/2301 4000 -DZ BKN004 TEMPO 2223/2304 0200 FG BKN001 BECMG 2301/2304 9999 NSW FEW015

Decode

Departure Runways

ID Width Length Bearing (true/mag) Surface Threshold Overrun Markings Lighting
09 148 ft / 45 m 6,585 ft / 2,007 m 86.42° / 87.58° ASPHALT 0 ft / 0 m 0 ft / 0 m PREC-APP CENTERLINE EDGE THRESHOLD CALVERT TDZ REIL-OMNI
27 148 ft / 45 m 6,585 ft / 2,007 m 266.44° / 267.60° ASPHALT 413 ft / 126 m 0 ft / 0 m PREC-APP CENTERLINE EDGE THRESHOLD ODALS TDZ REIL-OMNI

EGSS

Details ICAO EGSS (STN)
Name London Stansted
Region United Kingdom
Timezone Europe/London (UTC+0.0)
Stats Elevation 348 ft / 106 m (AMSL)
Location 51.885100° 0.234986°
Runways 1
Magnetic Variation 0.176° W

METAR

EGSS 220550Z AUTO 19006KT 9000 OVC012 09/07 Q1029

Decode

TAF

TAF EGSS 220502Z 2206/2312 20003KT 9000 BKN012 PROB30 TEMPO 2206/2209 9999 BKN020 BECMG 2209/2212 9999 BKN020 BECMG 2218/2221 26010KT BECMG 2300/2303 BKN014 PROB30 TEMPO 2301/2305 8000 -RADZ BKN008 BECMG 2303/2306 35012KT FEW015

Decode

Destination Runways

ID Width Length Bearing (true/mag) Surface Threshold Overrun Markings Lighting
04 151 ft / 46 m 9,985 ft / 3,044 m 42.78° / 42.96° ASPHALT 974 ft / 297 m 0 ft / 0 m UK-PREC-APP CENTERLINE EDGE THRESHOLD CALVERT-ILS TDZ REIL-OMNI
22 151 ft / 46 m 9,985 ft / 3,044 m 222.81° / 222.98° ASPHALT 0 ft / 0 m 0 ft / 0 m UK-PREC-APP CENTERLINE EDGE THRESHOLD CALVERT-ILS TDZ REIL-OMNI

Approach Navaids

Runway Type Ident Frequency Range Bearing (true/mag) Slope Elevation
04 DME ISED 110.50 MHz 18 nm / 33 km - - 348 ft / 106 m (AMSL)
04 GS ISED 110.50 MHz 10 nm / 19 km 42.80° / 42.98 ° 3.00° 348 ft / 106 m (AMSL)
04 LOC-ILS ISED 110.50 MHz 18 nm / 33 km 42.80° / 42.98 ° - 348 ft / 106 m (AMSL)
22 LOC-ILS ISX 110.50 MHz 18 nm / 33 km 222.80° / 222.98 ° - 348 ft / 106 m (AMSL)
22 GS ISX 110.50 MHz 10 nm / 19 km 222.80° / 222.98 ° 3.00° 348 ft / 106 m (AMSL)
22 DME ISX 110.50 MHz 18 nm / 33 km - - 348 ft / 106 m (AMSL)

Popular Alternatives